sensor_id;sensor_type;location;lat;lon;timestamp;temperature;humidity
774;DHT22;370;48.810;9.150;2023-03-11T00:00:33;3.80;1.00
774;DHT22;370;48.810;9.150;2023-03-11T00:03:01;3.80;1.00
774;DHT22;370;48.810;9.150;2023-03-11T00:05:31;3.60;1.00
774;DHT22;370;48.810;9.150;2023-03-11T00:07:59;3.50;1.00
774;DHT22;370;48.810;9.150;2023-03-11T00:10:29;3.40;1.00
774;DHT22;370;48.810;9.150;2023-03-11T00:12:56;3.20;1.00
774;DHT22;370;48.810;9.150;2023-03-11T00:15:23;3.20;1.00
774;DHT22;370;48.810;9.150;2023-03-11T00:17:50;3.20;1.00
774;DHT22;370;48.810;9.150;2023-03-11T00:20:20;3.20;1.00
774;DHT22;370;48.810;9.150;2023-03-11T00:22:49;3.30;1.00
774;DHT22;370;48.810;9.150;2023-03-11T00:25:17;3.20;1.00
774;DHT22;370;48.810;9.150;2023-03-11T00:27:44;3.30;1.00
774;DHT22;370;48.810;9.150;2023-03-11T00:30:12;3.30;1.00
774;DHT22;370;48.810;9.150;2023-03-11T00:32:39;3.30;1.00
774;DHT22;370;48.810;9.150;2023-03-11T00:35:07;3.30;1.00
774;DHT22;370;48.810;9.150;2023-03-11T00:37:35;3.30;1.00
774;DHT22;370;48.810;9.150;2023-03-11T00:40:04;3.40;1.00
774;DHT22;370;48.810;9.150;2023-03-11T00:42:33;3.40;1.00
774;DHT22;370;48.810;9.150;2023-03-11T00:45:00;3.40;1.00
774;DHT22;370;48.810;9.150;2023-03-11T00:47:26;3.50;1.00
774;DHT22;370;48.810;9.150;2023-03-11T00:49:53;3.50;1.00
774;DHT22;370;48.810;9.150;2023-03-11T00:52:20;3.50;1.00
774;DHT22;370;48.810;9.150;2023-03-11T00:54:46;3.40;1.00
774;DHT22;370;48.810;9.150;2023-03-11T00:57:14;3.40;1.00
774;DHT22;370;48.810;9.150;2023-03-11T00:59:41;3.40;1.00
774;DHT22;370;48.810;9.150;2023-03-11T01:02:08;3.40;1.00
774;DHT22;370;48.810;9.150;2023-03-11T01:04:34;3.30;1.00
774;DHT22;370;48.810;9.150;2023-03-11T01:07:01;3.30;1.00
774;DHT22;370;48.810;9.150;2023-03-11T01:09:28;3.30;1.00
774;DHT22;370;48.810;9.150;2023-03-11T01:11:55;3.30;1.00
774;DHT22;370;48.810;9.150;2023-03-11T01:14:23;3.30;1.00
774;DHT22;370;48.810;9.150;2023-03-11T01:16:50;3.20;1.00
774;DHT22;370;48.810;9.150;2023-03-11T01:19:18;3.20;1.00
774;DHT22;370;48.810;9.150;2023-03-11T01:21:44;3.20;1.00
774;DHT22;370;48.810;9.150;2023-03-11T01:24:11;3.20;1.00
774;DHT22;370;48.810;9.150;2023-03-11T01:26:38;3.00;1.00
774;DHT22;370;48.810;9.150;2023-03-11T01:29:04;3.00;1.00
774;DHT22;370;48.810;9.150;2023-03-11T01:31:32;2.90;1.00
774;DHT22;370;48.810;9.150;2023-03-11T01:33:59;3.00;1.00
774;DHT22;370;48.810;9.150;2023-03-11T01:36:26;3.00;1.00
774;DHT22;370;48.810;9.150;2023-03-11T01:38:52;3.00;1.00
774;DHT22;370;48.810;9.150;2023-03-11T01:41:19;2.90;1.00
774;DHT22;370;48.810;9.150;2023-03-11T01:43:49;2.90;1.00
774;DHT22;370;48.810;9.150;2023-03-11T01:46:18;2.80;1.00
774;DHT22;370;48.810;9.150;2023-03-11T01:48:47;2.70;1.00
774;DHT22;370;48.810;9.150;2023-03-11T01:51:16;2.70;1.00
774;DHT22;370;48.810;9.150;2023-03-11T01:53:45;2.70;1.00
774;DHT22;370;48.810;9.150;2023-03-11T01:56:12;2.70;1.00
774;DHT22;370;48.810;9.150;2023-03-11T01:58:42;2.70;1.00
774;DHT22;370;48.810;9.150;2023-03-11T02:01:11;2.60;1.00
774;DHT22;370;48.810;9.150;2023-03-11T02:03:39;2.60;1.00
774;DHT22;370;48.810;9.150;2023-03-11T02:06:10;2.40;1.00
774;DHT22;370;48.810;9.150;2023-03-11T02:08:38;2.40;1.00
774;DHT22;370;48.810;9.150;2023-03-11T02:11:08;2.30;1.00
774;DHT22;370;48.810;9.150;2023-03-11T02:13:36;2.30;1.00
774;DHT22;370;48.810;9.150;2023-03-11T02:16:04;2.20;1.00
774;DHT22;370;48.810;9.150;2023-03-11T02:18:31;2.30;1.00
774;DHT22;370;48.810;9.150;2023-03-11T02:21:05;2.30;1.00
774;DHT22;370;48.810;9.150;2023-03-11T02:23:40;2.40;1.00
774;DHT22;370;48.810;9.150;2023-03-11T02:26:13;2.40;1.00
774;DHT22;370;48.810;9.150;2023-03-11T02:28:42;2.50;1.00
774;DHT22;370;48.810;9.150;2023-03-11T02:31:09;2.40;1.00
774;DHT22;370;48.810;9.150;2023-03-11T02:33:37;2.40;1.00
774;DHT22;370;48.810;9.150;2023-03-11T02:36:04;2.30;1.00
774;DHT22;370;48.810;9.150;2023-03-11T02:38:31;2.30;1.00
774;DHT22;370;48.810;9.150;2023-03-11T02:40:59;2.10;1.00
774;DHT22;370;48.810;9.150;2023-03-11T02:43:32;2.10;1.00
774;DHT22;370;48.810;9.150;2023-03-11T02:46:03;2.00;1.00
774;DHT22;370;48.810;9.150;2023-03-11T02:48:30;1.90;1.00
774;DHT22;370;48.810;9.150;2023-03-11T02:50:57;1.80;1.00
774;DHT22;370;48.810;9.150;2023-03-11T02:53:27;1.80;1.00
774;DHT22;370;48.810;9.150;2023-03-11T02:55:56;1.70;1.00
774;DHT22;370;48.810;9.150;2023-03-11T02:58:22;1.70;1.00
774;DHT22;370;48.810;9.150;2023-03-11T03:00:49;1.60;1.00
774;DHT22;370;48.810;9.150;2023-03-11T03:03:17;1.50;1.00
774;DHT22;370;48.810;9.150;2023-03-11T03:05:44;1.50;1.00
774;DHT22;370;48.810;9.150;2023-03-11T03:08:10;1.40;1.00
774;DHT22;370;48.810;9.150;2023-03-11T03:10:37;1.40;1.00
774;DHT22;370;48.810;9.150;2023-03-11T03:13:04;1.30;1.00
774;DHT22;370;48.810;9.150;2023-03-11T03:15:30;1.30;1.00
774;DHT22;370;48.810;9.150;2023-03-11T03:17:57;1.20;1.00
774;DHT22;370;48.810;9.150;2023-03-11T03:20:25;1.10;1.00
774;DHT22;370;48.810;9.150;2023-03-11T03:22:53;1.10;1.00
774;DHT22;370;48.810;9.150;2023-03-11T03:25:20;1.10;1.00
774;DHT22;370;48.810;9.150;2023-03-11T03:27:47;1.10;1.00
774;DHT22;370;48.810;9.150;2023-03-11T03:32:42;1.00;1.00
774;DHT22;370;48.810;9.150;2023-03-11T03:35:09;1.00;1.00
774;DHT22;370;48.810;9.150;2023-03-11T03:37:37;1.00;1.00
774;DHT22;370;48.810;9.150;2023-03-11T03:40:05;1.00;1.00
774;DHT22;370;48.810;9.150;2023-03-11T03:42:33;1.00;1.00
774;DHT22;370;48.810;9.150;2023-03-11T03:45:00;1.00;1.00
774;DHT22;370;48.810;9.150;2023-03-11T03:47:27;0.80;1.00
774;DHT22;370;48.810;9.150;2023-03-11T03:49:54;0.80;1.00
774;DHT22;370;48.810;9.150;2023-03-11T03:52:20;0.70;1.00
774;DHT22;370;48.810;9.150;2023-03-11T03:54:49;0.70;1.00
774;DHT22;370;48.810;9.150;2023-03-11T03:57:16;0.70;1.00
774;DHT22;370;48.810;9.150;2023-03-11T03:59:42;0.70;1.00
774;DHT22;370;48.810;9.150;2023-03-11T04:02:09;0.70;1.00
774;DHT22;370;48.810;9.150;2023-03-11T04:04:36;0.60;1.00
774;DHT22;370;48.810;9.150;2023-03-11T04:07:03;0.60;1.00
774;DHT22;370;48.810;9.150;2023-03-11T04:09:30;0.60;1.00
774;DHT22;370;48.810;9.150;2023-03-11T04:11:58;0.60;1.00
774;DHT22;370;48.810;9.150;2023-03-11T04:14:25;0.60;1.30
774;DHT22;370;48.810;9.150;2023-03-11T04:16:52;0.60;1.40
774;DHT22;370;48.810;9.150;2023-03-11T04:19:18;0.70;1.30
774;DHT22;370;48.810;9.150;2023-03-11T04:21:45;0.70;1.00
774;DHT22;370;48.810;9.150;2023-03-11T04:24:12;0.70;1.00
774;DHT22;370;48.810;9.150;2023-03-11T04:26:38;0.70;1.00
774;DHT22;370;48.810;9.150;2023-03-11T04:29:06;0.80;1.00
774;DHT22;370;48.810;9.150;2023-03-11T04:31:33;0.70;1.00
774;DHT22;370;48.810;9.150;2023-03-11T04:34:00;0.60;1.90
774;DHT22;370;48.810;9.150;2023-03-11T04:36:27;0.50;2.40
774;DHT22;370;48.810;9.150;2023-03-11T04:38:54;0.60;2.40
774;DHT22;370;48.810;9.150;2023-03-11T04:41:22;0.50;2.80
774;DHT22;370;48.810;9.150;2023-03-11T04:43:48;0.40;3.00
774;DHT22;370;48.810;9.150;2023-03-11T04:46:17;0.40;3.30
774;DHT22;370;48.810;9.150;2023-03-11T04:48:43;0.30;3.90
774;DHT22;370;48.810;9.150;2023-03-11T04:51:10;0.30;4.30
774;DHT22;370;48.810;9.150;2023-03-11T04:53:37;0.30;4.10
774;DHT22;370;48.810;9.150;2023-03-11T04:56:03;0.20;4.90
774;DHT22;370;48.810;9.150;2023-03-11T04:58:30;0.20;5.60
774;DHT22;370;48.810;9.150;2023-03-11T05:00:57;0.20;5.60
774;DHT22;370;48.810;9.150;2023-03-11T05:03:25;0.20;5.50
774;DHT22;370;48.810;9.150;2023-03-11T05:05:51;0.20;5.70
774;DHT22;370;48.810;9.150;2023-03-11T05:08:21;0.20;6.40
774;DHT22;370;48.810;9.150;2023-03-11T05:10:48;0.20;6.20
774;DHT22;370;48.810;9.150;2023-03-11T05:13:14;0.10;6.40
774;DHT22;370;48.810;9.150;2023-03-11T05:15:41;0.20;6.70
774;DHT22;370;48.810;9.150;2023-03-11T05:18:08;0.30;6.10
774;DHT22;370;48.810;9.150;2023-03-11T05:20:36;0.40;5.60
774;DHT22;370;48.810;9.150;2023-03-11T05:23:02;0.40;5.50
774;DHT22;370;48.810;9.150;2023-03-11T05:25:29;0.40;5.00
774;DHT22;370;48.810;9.150;2023-03-11T05:27:56;0.40;5.10
774;DHT22;370;48.810;9.150;2023-03-11T05:30:23;0.40;5.70
774;DHT22;370;48.810;9.150;2023-03-11T05:32:50;0.40;5.00
774;DHT22;370;48.810;9.150;2023-03-11T05:35:16;0.40;5.30
774;DHT22;370;48.810;9.150;2023-03-11T05:37:44;0.50;5.00
774;DHT22;370;48.810;9.150;2023-03-11T05:40:14;0.60;4.40
774;DHT22;370;48.810;9.150;2023-03-11T05:42:41;0.60;4.20
774;DHT22;370;48.810;9.150;2023-03-11T05:45:09;0.50;3.90
774;DHT22;370;48.810;9.150;2023-03-11T05:47:36;0.50;4.10
774;DHT22;370;48.810;9.150;2023-03-11T05:50:03;0.40;4.00
774;DHT22;370;48.810;9.150;2023-03-11T05:52:30;0.40;3.90
774;DHT22;370;48.810;9.150;2023-03-11T05:54:59;0.40;4.30
774;DHT22;370;48.810;9.150;2023-03-11T05:57:26;0.30;4.30
774;DHT22;370;48.810;9.150;2023-03-11T05:59:53;0.30;5.00
774;DHT22;370;48.810;9.150;2023-03-11T06:02:20;0.30;5.10
774;DHT22;370;48.810;9.150;2023-03-11T06:04:47;0.30;4.90
774;DHT22;370;48.810;9.150;2023-03-11T06:07:14;0.20;5.30
774;DHT22;370;48.810;9.150;2023-03-11T06:09:41;0.20;5.50
774;DHT22;370;48.810;9.150;2023-03-11T06:12:09;0.30;5.20
774;DHT22;370;48.810;9.150;2023-03-11T06:14:36;0.30;5.60
774;DHT22;370;48.810;9.150;2023-03-11T06:17:03;0.30;5.50
774;DHT22;370;48.810;9.150;2023-03-11T06:19:29;0.30;5.20
774;DHT22;370;48.810;9.150;2023-03-11T06:21:56;0.30;5.50
774;DHT22;370;48.810;9.150;2023-03-11T06:24:23;0.40;5.20
774;DHT22;370;48.810;9.150;2023-03-11T06:26:50;0.40;4.80
774;DHT22;370;48.810;9.150;2023-03-11T06:29:18;0.50;4.20
774;DHT22;370;48.810;9.150;2023-03-11T06:31:46;0.60;3.50
774;DHT22;370;48.810;9.150;2023-03-11T06:34:13;0.70;3.30
774;DHT22;370;48.810;9.150;2023-03-11T06:36:39;0.90;2.10
774;DHT22;370;48.810;9.150;2023-03-11T06:39:06;1.10;2.30
774;DHT22;370;48.810;9.150;2023-03-11T06:41:33;1.40;1.50
774;DHT22;370;48.810;9.150;2023-03-11T06:44:00;1.60;1.00
774;DHT22;370;48.810;9.150;2023-03-11T06:46:29;1.80;1.00
774;DHT22;370;48.810;9.150;2023-03-11T06:48:56;1.90;1.00
774;DHT22;370;48.810;9.150;2023-03-11T06:51:23;2.10;1.00
774;DHT22;370;48.810;9.150;2023-03-11T06:53:51;2.20;1.00
774;DHT22;370;48.810;9.150;2023-03-11T06:56:20;2.30;1.00
774;DHT22;370;48.810;9.150;2023-03-11T06:58:47;2.30;1.00
774;DHT22;370;48.810;9.150;2023-03-11T07:01:15;2.30;1.00
774;DHT22;370;48.810;9.150;2023-03-11T07:03:44;2.50;1.00
774;DHT22;370;48.810;9.150;2023-03-11T07:06:12;2.80;1.00
774;DHT22;370;48.810;9.150;2023-03-11T07:08:39;3.20;1.00
774;DHT22;370;48.810;9.150;2023-03-11T07:11:07;3.70;1.00
774;DHT22;370;48.810;9.150;2023-03-11T07:13:35;4.50;1.00
774;DHT22;370;48.810;9.150;2023-03-11T07:16:04;5.10;1.00
774;DHT22;370;48.810;9.150;2023-03-11T07:18:31;5.60;1.00
774;DHT22;370;48.810;9.150;2023-03-11T07:21:00;5.90;1.00
774;DHT22;370;48.810;9.150;2023-03-11T07:23:26;6.30;1.00
774;DHT22;370;48.810;9.150;2023-03-11T07:25:53;6.70;1.00
774;DHT22;370;48.810;9.150;2023-03-11T07:28:20;7.00;1.00
774;DHT22;370;48.810;9.150;2023-03-11T07:30:47;7.50;1.00
774;DHT22;370;48.810;9.150;2023-03-11T07:33:14;7.80;1.00
774;DHT22;370;48.810;9.150;2023-03-11T07:35:41;7.90;1.00
774;DHT22;370;48.810;9.150;2023-03-11T07:38:09;8.40;1.00
774;DHT22;370;48.810;9.150;2023-03-11T07:40:36;8.80;1.00
774;DHT22;370;48.810;9.150;2023-03-11T07:43:02;9.60;1.00
774;DHT22;370;48.810;9.150;2023-03-11T07:45:29;10.50;1.00
774;DHT22;370;48.810;9.150;2023-03-11T07:47:56;11.20;1.00
774;DHT22;370;48.810;9.150;2023-03-11T07:50:23;12.20;1.00
774;DHT22;370;48.810;9.150;2023-03-11T07:52:49;13.00;1.00
774;DHT22;370;48.810;9.150;2023-03-11T07:55:18;13.40;1.00
774;DHT22;370;48.810;9.150;2023-03-11T07:57:46;13.80;1.00
774;DHT22;370;48.810;9.150;2023-03-11T08:00:14;14.10;1.00
774;DHT22;370;48.810;9.150;2023-03-11T08:02:41;13.80;1.00
774;DHT22;370;48.810;9.150;2023-03-11T08:05:09;13.70;1.00
774;DHT22;370;48.810;9.150;2023-03-11T08:07:36;13.80;1.00
774;DHT22;370;48.810;9.150;2023-03-11T08:10:03;13.90;1.00
774;DHT22;370;48.810;9.150;2023-03-11T08:12:31;14.50;1.00
774;DHT22;370;48.810;9.150;2023-03-11T08:14:57;15.20;1.00
774;DHT22;370;48.810;9.150;2023-03-11T08:17:24;15.80;1.00
774;DHT22;370;48.810;9.150;2023-03-11T08:19:51;16.80;1.00
774;DHT22;370;48.810;9.150;2023-03-11T08:22:18;16.80;1.00
774;DHT22;370;48.810;9.150;2023-03-11T08:24:44;16.30;1.00
774;DHT22;370;48.810;9.150;2023-03-11T08:27:11;16.50;1.00
774;DHT22;370;48.810;9.150;2023-03-11T08:29:39;16.80;1.00
774;DHT22;370;48.810;9.150;2023-03-11T08:32:06;16.80;1.00
774;DHT22;370;48.810;9.150;2023-03-11T08:34:33;17.50;1.00
774;DHT22;370;48.810;9.150;2023-03-11T08:37:00;17.80;1.00
774;DHT22;370;48.810;9.150;2023-03-11T08:39:26;17.30;1.00
774;DHT22;370;48.810;9.150;2023-03-11T08:41:53;17.50;1.00
774;DHT22;370;48.810;9.150;2023-03-11T08:44:20;17.80;1.00
774;DHT22;370;48.810;9.150;2023-03-11T08:46:48;18.10;1.00
774;DHT22;370;48.810;9.150;2023-03-11T08:49:15;17.40;1.00
774;DHT22;370;48.810;9.150;2023-03-11T08:51:41;16.80;1.00
774;DHT22;370;48.810;9.150;2023-03-11T08:54:08;17.40;1.00
774;DHT22;370;48.810;9.150;2023-03-11T08:56:35;17.60;1.00
774;DHT22;370;48.810;9.150;2023-03-11T08:59:01;17.60;1.00
774;DHT22;370;48.810;9.150;2023-03-11T09:01:28;17.10;1.00
774;DHT22;370;48.810;9.150;2023-03-11T09:03:56;18.30;1.00
774;DHT22;370;48.810;9.150;2023-03-11T09:06:23;19.80;1.00
774;DHT22;370;48.810;9.150;2023-03-11T09:08:50;19.80;1.00
774;DHT22;370;48.810;9.150;2023-03-11T09:11:17;19.30;1.00
774;DHT22;370;48.810;9.150;2023-03-11T09:13:46;17.60;1.00
774;DHT22;370;48.810;9.150;2023-03-11T09:16:15;17.10;1.00
774;DHT22;370;48.810;9.150;2023-03-11T09:18:42;18.20;1.00
774;DHT22;370;48.810;9.150;2023-03-11T09:21:10;18.80;1.00
774;DHT22;370;48.810;9.150;2023-03-11T09:23:37;19.90;1.00
774;DHT22;370;48.810;9.150;2023-03-11T09:26:04;21.20;1.00
774;DHT22;370;48.810;9.150;2023-03-11T09:28:31;20.90;1.00
774;DHT22;370;48.810;9.150;2023-03-11T09:30:58;21.30;1.00
774;DHT22;370;48.810;9.150;2023-03-11T09:33:25;22.80;1.00
774;DHT22;370;48.810;9.150;2023-03-11T09:35:51;23.70;1.00
774;DHT22;370;48.810;9.150;2023-03-11T09:38:19;25.30;1.00
774;DHT22;370;48.810;9.150;2023-03-11T09:40:53;27.00;1.00
774;DHT22;370;48.810;9.150;2023-03-11T09:43:30;27.90;1.00
774;DHT22;370;48.810;9.150;2023-03-11T09:46:05;28.30;1.00
774;DHT22;370;48.810;9.150;2023-03-11T09:48:39;27.80;1.00
774;DHT22;370;48.810;9.150;2023-03-11T09:51:15;25.10;1.00
774;DHT22;370;48.810;9.150;2023-03-11T09:53:45;25.60;1.00
774;DHT22;370;48.810;9.150;2023-03-11T09:56:14;26.80;1.00
774;DHT22;370;48.810;9.150;2023-03-11T09:58:43;28.30;1.00
774;DHT22;370;48.810;9.150;2023-03-11T10:01:15;29.20;1.00
774;DHT22;370;48.810;9.150;2023-03-11T10:03:44;30.10;1.00
774;DHT22;370;48.810;9.150;2023-03-11T10:06:14;31.10;1.00
774;DHT22;370;48.810;9.150;2023-03-11T10:08:46;32.50;1.00
774;DHT22;370;48.810;9.150;2023-03-11T10:11:22;33.60;1.00
774;DHT22;370;48.810;9.150;2023-03-11T10:14:00;34.80;1.00
774;DHT22;370;48.810;9.150;2023-03-11T10:16:37;34.30;1.00
774;DHT22;370;48.810;9.150;2023-03-11T10:19:12;34.30;1.00
774;DHT22;370;48.810;9.150;2023-03-11T10:21:46;33.70;1.00
774;DHT22;370;48.810;9.150;2023-03-11T10:24:32;33.60;1.00
774;DHT22;370;48.810;9.150;2023-03-11T10:27:05;33.90;1.00
774;DHT22;370;48.810;9.150;2023-03-11T10:29:40;32.00;1.00
774;DHT22;370;48.810;9.150;2023-03-11T10:32:12;31.50;1.00
774;DHT22;370;48.810;9.150;2023-03-11T10:34:44;32.10;1.00
774;DHT22;370;48.810;9.150;2023-03-11T10:37:16;31.60;1.00
774;DHT22;370;48.810;9.150;2023-03-11T10:39:45;31.70;1.00
774;DHT22;370;48.810;9.150;2023-03-11T10:42:15;30.70;1.00
774;DHT22;370;48.810;9.150;2023-03-11T10:44:43;32.20;1.00
774;DHT22;370;48.810;9.150;2023-03-11T10:47:14;33.80;1.00
774;DHT22;370;48.810;9.150;2023-03-11T10:49:42;35.20;1.00
774;DHT22;370;48.810;9.150;2023-03-11T10:52:08;34.80;1.00
774;DHT22;370;48.810;9.150;2023-03-11T10:54:37;35.40;1.00
774;DHT22;370;48.810;9.150;2023-03-11T10:57:18;35.60;1.00
774;DHT22;370;48.810;9.150;2023-03-11T10:59:49;36.90;1.00
774;DHT22;370;48.810;9.150;2023-03-11T11:02:24;35.50;1.00
774;DHT22;370;48.810;9.150;2023-03-11T11:05:04;31.90;1.00
774;DHT22;370;48.810;9.150;2023-03-11T11:07:33;29.20;1.00
774;DHT22;370;48.810;9.150;2023-03-11T11:10:16;26.00;1.00
774;DHT22;370;48.810;9.150;2023-03-11T11:12:54;23.80;1.00
774;DHT22;370;48.810;9.150;2023-03-11T11:15:25;24.40;1.00
774;DHT22;370;48.810;9.150;2023-03-11T11:17:54;26.10;1.00
774;DHT22;370;48.810;9.150;2023-03-11T11:20:23;26.00;1.00
774;DHT22;370;48.810;9.150;2023-03-11T11:22:52;25.10;1.00
774;DHT22;370;48.810;9.150;2023-03-11T11:25:28;23.20;1.00
774;DHT22;370;48.810;9.150;2023-03-11T11:27:58;21.50;1.00
774;DHT22;370;48.810;9.150;2023-03-11T11:30:26;21.70;1.00
774;DHT22;370;48.810;9.150;2023-03-11T11:32:54;22.60;1.00
774;DHT22;370;48.810;9.150;2023-03-11T11:35:22;22.40;1.00
774;DHT22;370;48.810;9.150;2023-03-11T11:37:51;21.30;1.00
774;DHT22;370;48.810;9.150;2023-03-11T11:40:24;19.90;1.00
774;DHT22;370;48.810;9.150;2023-03-11T11:42:53;19.50;1.00
774;DHT22;370;48.810;9.150;2023-03-11T11:45:28;21.80;1.00
774;DHT22;370;48.810;9.150;2023-03-11T11:47:59;25.00;1.00
774;DHT22;370;48.810;9.150;2023-03-11T11:50:32;27.30;1.00
774;DHT22;370;48.810;9.150;2023-03-11T11:53:04;29.00;1.00
774;DHT22;370;48.810;9.150;2023-03-11T11:55:34;28.30;1.00
774;DHT22;370;48.810;9.150;2023-03-11T11:58:01;27.40;1.00
774;DHT22;370;48.810;9.150;2023-03-11T12:00:40;26.70;1.00
774;DHT22;370;48.810;9.150;2023-03-11T12:03:24;26.90;1.00
774;DHT22;370;48.810;9.150;2023-03-11T12:05:56;25.30;1.00
774;DHT22;370;48.810;9.150;2023-03-11T12:08:27;23.90;1.00
774;DHT22;370;48.810;9.150;2023-03-11T12:11:01;25.30;1.00
774;DHT22;370;48.810;9.150;2023-03-11T12:13:47;27.80;1.00
774;DHT22;370;48.810;9.150;2023-03-11T12:16:24;30.70;1.00
774;DHT22;370;48.810;9.150;2023-03-11T12:18:56;32.80;1.00
774;DHT22;370;48.810;9.150;2023-03-11T12:21:38;33.80;1.00
774;DHT22;370;48.810;9.150;2023-03-11T12:24:18;34.00;1.00
774;DHT22;370;48.810;9.150;2023-03-11T12:26:50;31.70;1.00
774;DHT22;370;48.810;9.150;2023-03-11T12:29:24;29.00;1.00
774;DHT22;370;48.810;9.150;2023-03-11T12:31:56;26.70;1.00
774;DHT22;370;48.810;9.150;2023-03-11T12:34:25;24.90;1.00
774;DHT22;370;48.810;9.150;2023-03-11T12:36:55;23.10;1.00
774;DHT22;370;48.810;9.150;2023-03-11T12:39:26;23.10;1.00
774;DHT22;370;48.810;9.150;2023-03-11T12:42:16;22.60;1.00
774;DHT22;370;48.810;9.150;2023-03-11T12:44:44;24.10;1.00
774;DHT22;370;48.810;9.150;2023-03-11T12:47:30;25.00;1.00
774;DHT22;370;48.810;9.150;2023-03-11T12:52:57;22.50;1.00
774;DHT22;370;48.810;9.150;2023-03-11T12:55:33;22.90;1.00
774;DHT22;370;48.810;9.150;2023-03-11T12:58:14;23.40;1.00
774;DHT22;370;48.810;9.150;2023-03-11T13:00:53;24.40;1.00
774;DHT22;370;48.810;9.150;2023-03-11T13:03:38;24.50;1.00
774;DHT22;370;48.810;9.150;2023-03-11T13:06:19;23.90;1.00
774;DHT22;370;48.810;9.150;2023-03-11T13:08:48;22.70;1.00
774;DHT22;370;48.810;9.150;2023-03-11T13:11:33;21.30;1.00
774;DHT22;370;48.810;9.150;2023-03-11T13:14:29;21.50;1.00
774;DHT22;370;48.810;9.150;2023-03-11T13:17:22;23.40;1.00
774;DHT22;370;48.810;9.150;2023-03-11T13:19:52;25.60;1.00
774;DHT22;370;48.810;9.150;2023-03-11T13:22:39;27.10;1.00
774;DHT22;370;48.810;9.150;2023-03-11T13:25:25;29.20;1.00
774;DHT22;370;48.810;9.150;2023-03-11T13:27:55;29.80;1.00
774;DHT22;370;48.810;9.150;2023-03-11T13:30:27;28.30;1.00
774;DHT22;370;48.810;9.150;2023-03-11T13:33:20;26.90;1.00
774;DHT22;370;48.810;9.150;2023-03-11T13:36:07;26.80;1.00
774;DHT22;370;48.810;9.150;2023-03-11T13:38:45;26.40;1.00
774;DHT22;370;48.810;9.150;2023-03-11T13:41:18;24.40;1.00
774;DHT22;370;48.810;9.150;2023-03-11T13:43:49;23.00;1.00
774;DHT22;370;48.810;9.150;2023-03-11T13:46:25;20.70;1.00
774;DHT22;370;48.810;9.150;2023-03-11T13:48:56;18.80;1.00
774;DHT22;370;48.810;9.150;2023-03-11T13:51:34;17.10;1.00
774;DHT22;370;48.810;9.150;2023-03-11T13:54:04;16.30;1.00
774;DHT22;370;48.810;9.150;2023-03-11T13:56:42;15.30;1.00
774;DHT22;370;48.810;9.150;2023-03-11T13:59:21;14.60;1.00
774;DHT22;370;48.810;9.150;2023-03-11T14:01:48;14.00;1.00
774;DHT22;370;48.810;9.150;2023-03-11T14:04:19;13.20;1.00
774;DHT22;370;48.810;9.150;2023-03-11T14:06:50;12.20;1.00
774;DHT22;370;48.810;9.150;2023-03-11T14:09:19;12.10;1.00
774;DHT22;370;48.810;9.150;2023-03-11T14:11:46;12.00;1.00
774;DHT22;370;48.810;9.150;2023-03-11T14:14:41;11.80;1.00
774;DHT22;370;48.810;9.150;2023-03-11T14:17:13;11.70;1.00
774;DHT22;370;48.810;9.150;2023-03-11T14:19:41;11.20;1.00
774;DHT22;370;48.810;9.150;2023-03-11T14:22:09;11.00;1.00
774;DHT22;370;48.810;9.150;2023-03-11T14:24:36;10.90;1.00
774;DHT22;370;48.810;9.150;2023-03-11T14:27:08;10.60;1.00
774;DHT22;370;48.810;9.150;2023-03-11T14:29:36;10.60;1.00
774;DHT22;370;48.810;9.150;2023-03-11T14:32:22;10.60;1.00
774;DHT22;370;48.810;9.150;2023-03-11T14:34:50;10.80;1.00
774;DHT22;370;48.810;9.150;2023-03-11T14:37:24;10.90;1.00
774;DHT22;370;48.810;9.150;2023-03-11T14:39:52;11.00;1.00
774;DHT22;370;48.810;9.150;2023-03-11T14:42:22;11.00;1.00
774;DHT22;370;48.810;9.150;2023-03-11T14:44:55;10.70;1.00
774;DHT22;370;48.810;9.150;2023-03-11T14:47:32;10.30;1.00
774;DHT22;370;48.810;9.150;2023-03-11T14:50:00;10.10;1.00
774;DHT22;370;48.810;9.150;2023-03-11T14:52:33;10.00;1.00
774;DHT22;370;48.810;9.150;2023-03-11T14:55:05;10.10;1.00
774;DHT22;370;48.810;9.150;2023-03-11T14:57:36;9.90;1.00
774;DHT22;370;48.810;9.150;2023-03-11T15:00:05;10.20;1.00
774;DHT22;370;48.810;9.150;2023-03-11T15:02:41;10.40;1.00
774;DHT22;370;48.810;9.150;2023-03-11T15:05:15;10.60;1.00
774;DHT22;370;48.810;9.150;2023-03-11T15:07:45;10.80;1.00
774;DHT22;370;48.810;9.150;2023-03-11T15:10:12;10.80;1.00
774;DHT22;370;48.810;9.150;2023-03-11T15:12:41;10.70;1.00
774;DHT22;370;48.810;9.150;2023-03-11T15:15:26;10.70;1.00
774;DHT22;370;48.810;9.150;2023-03-11T15:17:55;10.50;1.00
774;DHT22;370;48.810;9.150;2023-03-11T15:20:24;10.30;1.00
774;DHT22;370;48.810;9.150;2023-03-11T15:22:55;10.40;1.00
774;DHT22;370;48.810;9.150;2023-03-11T15:25:26;10.30;1.00
774;DHT22;370;48.810;9.150;2023-03-11T15:27:53;10.40;1.00
774;DHT22;370;48.810;9.150;2023-03-11T15:30:22;10.40;1.00
774;DHT22;370;48.810;9.150;2023-03-11T15:32:50;10.20;1.00
774;DHT22;370;48.810;9.150;2023-03-11T15:35:19;9.90;1.00
774;DHT22;370;48.810;9.150;2023-03-11T15:37:48;9.90;1.00
774;DHT22;370;48.810;9.150;2023-03-11T15:40:23;9.70;1.00
774;DHT22;370;48.810;9.150;2023-03-11T15:43:17;9.50;1.00
774;DHT22;370;48.810;9.150;2023-03-11T15:45:45;9.20;1.00
774;DHT22;370;48.810;9.150;2023-03-11T15:48:13;9.00;1.00
774;DHT22;370;48.810;9.150;2023-03-11T15:50:46;8.80;1.00
774;DHT22;370;48.810;9.150;2023-03-11T15:53:13;8.90;1.00
774;DHT22;370;48.810;9.150;2023-03-11T15:55:42;8.80;1.00
774;DHT22;370;48.810;9.150;2023-03-11T15:58:10;8.80;1.00
774;DHT22;370;48.810;9.150;2023-03-11T16:00:44;8.70;1.00
774;DHT22;370;48.810;9.150;2023-03-11T16:03:11;8.50;1.00
774;DHT22;370;48.810;9.150;2023-03-11T16:05:38;8.30;1.00
774;DHT22;370;48.810;9.150;2023-03-11T16:08:05;8.00;1.00
774;DHT22;370;48.810;9.150;2023-03-11T16:10:33;7.70;1.00
774;DHT22;370;48.810;9.150;2023-03-11T16:13:01;7.60;1.00
774;DHT22;370;48.810;9.150;2023-03-11T16:15:31;7.60;1.00
774;DHT22;370;48.810;9.150;2023-03-11T16:18:00;7.50;1.00
774;DHT22;370;48.810;9.150;2023-03-11T16:20:29;7.40;1.00
774;DHT22;370;48.810;9.150;2023-03-11T16:22:57;7.40;1.00
774;DHT22;370;48.810;9.150;2023-03-11T16:25:28;7.30;1.00
774;DHT22;370;48.810;9.150;2023-03-11T16:27:56;7.30;1.00
774;DHT22;370;48.810;9.150;2023-03-11T16:30:25;7.20;1.00
774;DHT22;370;48.810;9.150;2023-03-11T16:32:52;7.20;1.00
774;DHT22;370;48.810;9.150;2023-03-11T16:35:19;7.10;1.00
774;DHT22;370;48.810;9.150;2023-03-11T16:37:46;7.00;1.00
774;DHT22;370;48.810;9.150;2023-03-11T16:40:16;6.90;1.00
774;DHT22;370;48.810;9.150;2023-03-11T16:42:42;6.80;1.00
774;DHT22;370;48.810;9.150;2023-03-11T16:45:10;6.70;1.00
774;DHT22;370;48.810;9.150;2023-03-11T16:47:38;6.70;1.00
774;DHT22;370;48.810;9.150;2023-03-11T16:50:06;6.70;1.00
774;DHT22;370;48.810;9.150;2023-03-11T16:52:33;6.60;1.00
774;DHT22;370;48.810;9.150;2023-03-11T16:54:59;6.70;1.00
774;DHT22;370;48.810;9.150;2023-03-11T16:57:26;6.70;1.00
774;DHT22;370;48.810;9.150;2023-03-11T16:59:53;6.50;1.00
774;DHT22;370;48.810;9.150;2023-03-11T17:02:20;6.50;1.00
774;DHT22;370;48.810;9.150;2023-03-11T17:04:49;6.50;1.00
774;DHT22;370;48.810;9.150;2023-03-11T17:07:16;6.40;1.00
774;DHT22;370;48.810;9.150;2023-03-11T17:09:43;6.30;1.00
774;DHT22;370;48.810;9.150;2023-03-11T17:12:10;6.30;1.00
774;DHT22;370;48.810;9.150;2023-03-11T17:14:40;6.20;1.00
774;DHT22;370;48.810;9.150;2023-03-11T17:17:06;6.10;1.00
774;DHT22;370;48.810;9.150;2023-03-11T17:19:33;6.10;1.00
774;DHT22;370;48.810;9.150;2023-03-11T17:22:01;6.00;1.00